Aquasco, Maryland
Current Conditions -  °F | °C
As of 8:06 PM on Tuesday 21 Oct 2014 (Local Time) from KADW Reporting Station
Overcast Overcast  
Wind Chill: 13°   Ceiling: 6500
Heat Index: 13°   Visibility: 10mi
Dew Point: 12°   Wind: 9mph
Humidity: 94%   Direction: 330°NNW
Pressure: 29.88"   Gusts: NA
Location:  38.58°N, 76.73°W
Report Text: KADW 220006Z AUTO 33008KT 10SM SCT044 OVC065 13/12 A2988 RMK AO2
Loading
Personal Weather Stations






























Interactive Weather Map New forecast layout! Learn more

10-Day Weather Forecast

Advertisements
Track Severe Weather on mobile